sensor_id;sensor_type;location;lat;lon;timestamp;pressure;altitude;pressure_sealevel;temperature;humidity
19777;BME280;10047;42.490;26.012;2023-02-18T00:02:04;100827.72;;;5.77;100.00
19777;BME280;10047;42.490;26.012;2023-02-18T00:04:30;100840.19;;;5.53;100.00
19777;BME280;10047;42.490;26.012;2023-02-18T00:06:55;100838.47;;;5.44;100.00
19777;BME280;10047;42.490;26.012;2023-02-18T00:09:21;100838.38;;;5.32;100.00
19777;BME280;10047;42.490;26.012;2023-02-18T00:11:46;100761.09;;;5.33;100.00
19777;BME280;10047;42.490;26.012;2023-02-18T00:14:13;100771.06;;;5.16;100.00
19777;BME280;10047;42.490;26.012;2023-02-18T00:16:40;100795.66;;;5.50;100.00
19777;BME280;10047;42.490;26.012;2023-02-18T00:19:07;100821.97;;;5.97;100.00
19777;BME280;10047;42.490;26.012;2023-02-18T00:21:35;100816.59;;;5.40;100.00
19777;BME280;10047;42.490;26.012;2023-02-18T00:24:02;100830.81;;;5.35;100.00
19777;BME280;10047;42.490;26.012;2023-02-18T00:26:27;100765.25;;;5.26;100.00
19777;BME280;10047;42.490;26.012;2023-02-18T00:28:53;100830.03;;;5.39;100.00
19777;BME280;10047;42.490;26.012;2023-02-18T00:31:29;100766.94;;;5.32;100.00
19777;BME280;10047;42.490;26.012;2023-02-18T00:33:56;100765.06;;;5.00;100.00
19777;BME280;10047;42.490;26.012;2023-02-18T00:36:22;100794.78;;;5.51;100.00
19777;BME280;10047;42.490;26.012;2023-02-18T00:38:50;100748.88;;;4.70;100.00
19777;BME280;10047;42.490;26.012;2023-02-18T00:41:16;100802.28;;;5.38;100.00
19777;BME280;10047;42.490;26.012;2023-02-18T00:43:42;100802.91;;;5.09;100.00
19777;BME280;10047;42.490;26.012;2023-02-18T00:46:08;100785.19;;;4.97;100.00
19777;BME280;10047;42.490;26.012;2023-02-18T00:48:34;100712.00;;;4.76;100.00
19777;BME280;10047;42.490;26.012;2023-02-18T00:51:00;100680.13;;;4.78;100.00
19777;BME280;10047;42.490;26.012;2023-02-18T00:53:27;100779.34;;;4.98;100.00
19777;BME280;10047;42.490;26.012;2023-02-18T00:55:53;100779.38;;;5.03;100.00
19777;BME280;10047;42.490;26.012;2023-02-18T00:58:18;100675.66;;;4.43;100.00
19777;BME280;10047;42.490;26.012;2023-02-18T01:00:44;100775.31;;;5.26;100.00
19777;BME280;10047;42.490;26.012;2023-02-18T01:03:10;100724.63;;;4.82;100.00
19777;BME280;10047;42.490;26.012;2023-02-18T01:05:37;100791.22;;;5.14;100.00
19777;BME280;10047;42.490;26.012;2023-02-18T01:08:03;100786.22;;;5.25;100.00
19777;BME280;10047;42.490;26.012;2023-02-18T01:10:29;100732.09;;;4.67;100.00
19777;BME280;10047;42.490;26.012;2023-02-18T01:12:55;100768.31;;;4.84;100.00
19777;BME280;10047;42.490;26.012;2023-02-18T01:15:21;100723.81;;;4.85;100.00
19777;BME280;10047;42.490;26.012;2023-02-18T01:17:47;100770.84;;;4.87;100.00
19777;BME280;10047;42.490;26.012;2023-02-18T01:20:13;100763.06;;;4.59;100.00
19777;BME280;10047;42.490;26.012;2023-02-18T01:22:39;100701.53;;;4.26;100.00
19777;BME280;10047;42.490;26.012;2023-02-18T01:25:06;100721.13;;;4.59;100.00
19777;BME280;10047;42.490;26.012;2023-02-18T01:27:31;100720.91;;;4.38;100.00
19777;BME280;10047;42.490;26.012;2023-02-18T01:29:57;100704.84;;;4.24;100.00
19777;BME280;10047;42.490;26.012;2023-02-18T01:32:22;100710.66;;;4.14;100.00
19777;BME280;10047;42.490;26.012;2023-02-18T01:34:47;100751.22;;;4.50;100.00
19777;BME280;10047;42.490;26.012;2023-02-18T01:37:13;100744.41;;;4.35;100.00
19777;BME280;10047;42.490;26.012;2023-02-18T01:39:38;100695.25;;;3.85;100.00
19777;BME280;10047;42.490;26.012;2023-02-18T01:42:04;100731.28;;;4.71;100.00
19777;BME280;10047;42.490;26.012;2023-02-18T01:44:32;100744.41;;;4.35;100.00
19777;BME280;10047;42.490;26.012;2023-02-18T01:46:57;100662.81;;;4.12;100.00
19777;BME280;10047;42.490;26.012;2023-02-18T01:49:27;100667.91;;;4.18;100.00
19777;BME280;10047;42.490;26.012;2023-02-18T01:52:07;100669.59;;;4.19;100.00
19777;BME280;10047;42.490;26.012;2023-02-18T01:54:39;100723.25;;;4.20;100.00
19777;BME280;10047;42.490;26.012;2023-02-18T01:57:06;100716.56;;;4.19;100.00
19777;BME280;10047;42.490;26.012;2023-02-18T01:59:36;100710.78;;;4.32;100.00
19777;BME280;10047;42.490;26.012;2023-02-18T02:02:03;100698.25;;;4.33;100.00
19777;BME280;10047;42.490;26.012;2023-02-18T02:04:31;100644.97;;;3.85;100.00
19777;BME280;10047;42.490;26.012;2023-02-18T02:06:57;100638.75;;;3.54;100.00
19777;BME280;10047;42.490;26.012;2023-02-18T02:09:25;100689.00;;;4.32;100.00
19777;BME280;10047;42.490;26.012;2023-02-18T02:17:41;100690.53;;;4.14;100.00
19777;BME280;10047;42.490;26.012;2023-02-18T02:32:15;100619.50;;;3.55;100.00
19777;BME280;10047;42.490;26.012;2023-02-18T02:34:57;100682.44;;;4.51;100.00
19777;BME280;10047;42.490;26.012;2023-02-18T02:45:10;100627.81;;;3.46;100.00
19777;BME280;10047;42.490;26.012;2023-02-18T02:48:01;100711.19;;;3.89;100.00
19777;BME280;10047;42.490;26.012;2023-02-18T02:50:44;100702.72;;;3.78;100.00
19777;BME280;10047;42.490;26.012;2023-02-18T02:53:19;100648.09;;;3.65;100.00
19777;BME280;10047;42.490;26.012;2023-02-18T02:55:46;100701.09;;;3.83;100.00
19777;BME280;10047;42.490;26.012;2023-02-18T02:58:18;100708.66;;;3.86;100.00
19777;BME280;10047;42.490;26.012;2023-02-18T03:11:24;100644.25;;;3.20;100.00
19777;BME280;10047;42.490;26.012;2023-02-18T03:14:10;100699.56;;;3.98;100.00
19777;BME280;10047;42.490;26.012;2023-02-18T03:16:50;100707.81;;;3.87;100.00
19777;BME280;10047;42.490;26.012;2023-02-18T03:24:30;100673.69;;;3.32;100.00
19777;BME280;10047;42.490;26.012;2023-02-18T03:27:17;100727.88;;;3.81;100.00
19777;BME280;10047;42.490;26.012;2023-02-18T03:29:47;100657.25;;;3.60;100.00
19777;BME280;10047;42.490;26.012;2023-02-18T03:32:18;100725.56;;;3.99;100.00
19777;BME280;10047;42.490;26.012;2023-02-18T03:34:48;100667.25;;;3.52;100.00
19777;BME280;10047;42.490;26.012;2023-02-18T03:37:15;100683.00;;;3.40;100.00
19777;BME280;10047;42.490;26.012;2023-02-18T03:39:45;100728.41;;;3.54;100.00
19777;BME280;10047;42.490;26.012;2023-02-18T03:42:15;100700.28;;;3.15;100.00
19777;BME280;10047;42.490;26.012;2023-02-18T03:44:41;100732.19;;;3.25;100.00
19777;BME280;10047;42.490;26.012;2023-02-18T03:47:06;100729.47;;;3.73;100.00
19777;BME280;10047;42.490;26.012;2023-02-18T03:49:32;100715.53;;;3.30;100.00
19777;BME280;10047;42.490;26.012;2023-02-18T03:51:57;100684.50;;;3.26;100.00
19777;BME280;10047;42.490;26.012;2023-02-18T03:54:22;100716.81;;;3.67;100.00
19777;BME280;10047;42.490;26.012;2023-02-18T03:56:48;100726.50;;;3.36;100.00
19777;BME280;10047;42.490;26.012;2023-02-18T03:59:13;100728.84;;;3.92;100.00
19777;BME280;10047;42.490;26.012;2023-02-18T04:01:39;100664.94;;;3.03;100.00
19777;BME280;10047;42.490;26.012;2023-02-18T04:04:04;100652.66;;;3.24;100.00
19777;BME280;10047;42.490;26.012;2023-02-18T04:06:30;100715.63;;;3.37;100.00
19777;BME280;10047;42.490;26.012;2023-02-18T04:08:55;100685.69;;;2.91;100.00
19777;BME280;10047;42.490;26.012;2023-02-18T04:11:21;100644.34;;;5.46;100.00
19777;BME280;10047;42.490;26.012;2023-02-18T04:13:46;100621.81;;;6.06;100.00
19777;BME280;10047;42.490;26.012;2023-02-18T04:16:12;100722.69;;;3.66;100.00
19777;BME280;10047;42.490;26.012;2023-02-18T04:18:37;100664.66;;;3.47;100.00
19777;BME280;10047;42.490;26.012;2023-02-18T04:21:03;100665.75;;;3.00;100.00
19777;BME280;10047;42.490;26.012;2023-02-18T04:23:29;100708.16;;;3.43;100.00
19777;BME280;10047;42.490;26.012;2023-02-18T04:25:54;100657.81;;;3.34;100.00
19777;BME280;10047;42.490;26.012;2023-02-18T04:28:19;100699.00;;;4.28;100.00
19777;BME280;10047;42.490;26.012;2023-02-18T04:30:45;100717.09;;;3.91;100.00
19777;BME280;10047;42.490;26.012;2023-02-18T04:33:11;100650.53;;;3.59;100.00
19777;BME280;10047;42.490;26.012;2023-02-18T04:35:36;100646.56;;;3.79;100.00
19777;BME280;10047;42.490;26.012;2023-02-18T04:38:04;100716.16;;;3.83;100.00
19777;BME280;10047;42.490;26.012;2023-02-18T04:40:30;100661.44;;;3.61;100.00
19777;BME280;10047;42.490;26.012;2023-02-18T04:42:58;100688.03;;;3.40;100.00
19777;BME280;10047;42.490;26.012;2023-02-18T04:45:25;100710.34;;;3.85;100.00
19777;BME280;10047;42.490;26.012;2023-02-18T04:47:50;100701.22;;;3.95;100.00
19777;BME280;10047;42.490;26.012;2023-02-18T04:50:16;100641.91;;;3.37;100.00
19777;BME280;10047;42.490;26.012;2023-02-18T04:52:41;100699.94;;;3.57;100.00
19777;BME280;10047;42.490;26.012;2023-02-18T04:55:07;100691.72;;;3.70;100.00
19777;BME280;10047;42.490;26.012;2023-02-18T04:57:33;100660.03;;;3.85;100.00
19777;BME280;10047;42.490;26.012;2023-02-18T04:59:59;100695.19;;;3.79;100.00
19777;BME280;10047;42.490;26.012;2023-02-18T05:02:25;100708.53;;;3.74;100.00
19777;BME280;10047;42.490;26.012;2023-02-18T05:04:50;100608.44;;;3.38;100.00
19777;BME280;10047;42.490;26.012;2023-02-18T05:07:15;100715.50;;;3.97;100.00
19777;BME280;10047;42.490;26.012;2023-02-18T05:09:41;100712.84;;;3.84;100.00
19777;BME280;10047;42.490;26.012;2023-02-18T05:12:06;100709.41;;;3.79;100.00
19777;BME280;10047;42.490;26.012;2023-02-18T05:14:32;100642.97;;;3.54;100.00
19777;BME280;10047;42.490;26.012;2023-02-18T05:16:57;100706.75;;;3.65;100.00
19777;BME280;10047;42.490;26.012;2023-02-18T05:19:22;100717.00;;;3.82;100.00
19777;BME280;10047;42.490;26.012;2023-02-18T05:21:50;100720.03;;;3.53;100.00
19777;BME280;10047;42.490;26.012;2023-02-18T05:24:15;100714.97;;;3.50;100.00
19777;BME280;10047;42.490;26.012;2023-02-18T05:26:41;100660.44;;;3.43;100.00
19777;BME280;10047;42.490;26.012;2023-02-18T05:29:06;100616.78;;;3.35;100.00
19777;BME280;10047;42.490;26.012;2023-02-18T05:31:32;100716.78;;;3.64;100.00
19777;BME280;10047;42.490;26.012;2023-02-18T05:34:03;100667.75;;;3.25;100.00
19777;BME280;10047;42.490;26.012;2023-02-18T05:36:28;100707.81;;;3.82;100.00
19777;BME280;10047;42.490;26.012;2023-02-18T05:38:54;100719.59;;;3.89;100.00
19777;BME280;10047;42.490;26.012;2023-02-18T05:41:19;100679.03;;;3.58;100.00
19777;BME280;10047;42.490;26.012;2023-02-18T05:43:45;100646.06;;;3.33;100.00
19777;BME280;10047;42.490;26.012;2023-02-18T05:46:29;100744.66;;;3.82;100.00
19777;BME280;10047;42.490;26.012;2023-02-18T05:48:54;100727.00;;;3.79;100.00
19777;BME280;10047;42.490;26.012;2023-02-18T05:51:19;100743.44;;;4.23;100.00
19777;BME280;10047;42.490;26.012;2023-02-18T05:53:45;100673.41;;;3.83;100.00
19777;BME280;10047;42.490;26.012;2023-02-18T05:56:10;100715.13;;;4.45;100.00
19777;BME280;10047;42.490;26.012;2023-02-18T05:58:36;100724.91;;;3.43;100.00
19777;BME280;10047;42.490;26.012;2023-02-18T06:01:01;100606.56;;;3.19;100.00
19777;BME280;10047;42.490;26.012;2023-02-18T06:03:27;100632.16;;;2.92;100.00
19777;BME280;10047;42.490;26.012;2023-02-18T06:05:52;100704.38;;;3.76;100.00
19777;BME280;10047;42.490;26.012;2023-02-18T06:08:18;100619.19;;;3.26;100.00
19777;BME280;10047;42.490;26.012;2023-02-18T06:10:46;100708.75;;;3.95;100.00
19777;BME280;10047;42.490;26.012;2023-02-18T06:13:12;100726.44;;;4.02;100.00
19777;BME280;10047;42.490;26.012;2023-02-18T06:15:38;100663.16;;;3.65;100.00
19777;BME280;10047;42.490;26.012;2023-02-18T06:18:04;100696.84;;;3.79;100.00
19777;BME280;10047;42.490;26.012;2023-02-18T06:20:30;100711.94;;;3.79;100.00
19777;BME280;10047;42.490;26.012;2023-02-18T06:22:56;100648.38;;;3.93;100.00
19777;BME280;10047;42.490;26.012;2023-02-18T06:25:22;100656.72;;;3.86;100.00
19777;BME280;10047;42.490;26.012;2023-02-18T06:27:47;100707.28;;;4.16;100.00
19777;BME280;10047;42.490;26.012;2023-02-18T06:30:13;100654.69;;;3.53;100.00
19777;BME280;10047;42.490;26.012;2023-02-18T06:32:38;100698.69;;;3.95;100.00
19777;BME280;10047;42.490;26.012;2023-02-18T06:35:04;100706.34;;;4.04;100.00
19777;BME280;10047;42.490;26.012;2023-02-18T06:37:30;100700.94;;;3.71;100.00
19777;BME280;10047;42.490;26.012;2023-02-18T06:39:56;100702.38;;;4.25;100.00
19777;BME280;10047;42.490;26.012;2023-02-18T06:42:21;100700.06;;;4.51;100.00
19777;BME280;10047;42.490;26.012;2023-02-18T06:44:47;100672.50;;;4.69;100.00
19777;BME280;10047;42.490;26.012;2023-02-18T06:47:12;100668.84;;;4.31;100.00
19777;BME280;10047;42.490;26.012;2023-02-18T06:49:37;100707.84;;;4.81;100.00
19777;BME280;10047;42.490;26.012;2023-02-18T06:52:04;100652.91;;;4.27;100.00
19777;BME280;10047;42.490;26.012;2023-02-18T06:54:30;100724.53;;;4.67;100.00
19777;BME280;10047;42.490;26.012;2023-02-18T06:56:55;100683.34;;;4.61;100.00
19777;BME280;10047;42.490;26.012;2023-02-18T06:59:21;100712.81;;;4.71;100.00
19777;BME280;10047;42.490;26.012;2023-02-18T07:01:47;100739.34;;;4.34;100.00
19777;BME280;10047;42.490;26.012;2023-02-18T07:04:20;100727.97;;;4.77;100.00
19777;BME280;10047;42.490;26.012;2023-02-18T07:06:45;100667.50;;;4.74;100.00
19777;BME280;10047;42.490;26.012;2023-02-18T07:09:10;100689.28;;;4.69;100.00
19777;BME280;10047;42.490;26.012;2023-02-18T07:11:36;100744.84;;;4.88;100.00
19777;BME280;10047;42.490;26.012;2023-02-18T07:14:01;100737.31;;;4.93;100.00
19777;BME280;10047;42.490;26.012;2023-02-18T07:16:27;100723.88;;;4.92;100.00
19777;BME280;10047;42.490;26.012;2023-02-18T07:18:52;100679.78;;;4.34;100.00
19777;BME280;10047;42.490;26.012;2023-02-18T07:21:17;100736.88;;;4.40;100.00
19777;BME280;10047;42.490;26.012;2023-02-18T07:23:43;100679.97;;;4.59;100.00
19777;BME280;10047;42.490;26.012;2023-02-18T07:26:11;100669.56;;;4.16;100.00
19777;BME280;10047;42.490;26.012;2023-02-18T07:28:37;100714.09;;;5.42;100.00
19777;BME280;10047;42.490;26.012;2023-02-18T07:31:03;100728.22;;;5.19;100.00
19777;BME280;10047;42.490;26.012;2023-02-18T07:33:28;100667.56;;;4.81;100.00
19777;BME280;10047;42.490;26.012;2023-02-18T07:35:55;100720.84;;;5.52;100.00
19777;BME280;10047;42.490;26.012;2023-02-18T07:38:21;100724.09;;;5.32;100.00
19777;BME280;10047;42.490;26.012;2023-02-18T07:40:47;100720.16;;;5.91;100.00
19777;BME280;10047;42.490;26.012;2023-02-18T07:43:12;100731.03;;;5.73;100.00
19777;BME280;10047;42.490;26.012;2023-02-18T07:45:38;100732.03;;;6.46;100.00
19777;BME280;10047;42.490;26.012;2023-02-18T07:48:03;100734.59;;;6.36;100.00
19777;BME280;10047;42.490;26.012;2023-02-18T07:50:29;100663.84;;;6.14;100.00
19777;BME280;10047;42.490;26.012;2023-02-18T07:53:02;100736.28;;;6.91;100.00
19777;BME280;10047;42.490;26.012;2023-02-18T07:55:28;100700.91;;;6.41;100.00
19777;BME280;10047;42.490;26.012;2023-02-18T07:58:20;100721.09;;;6.32;100.00
19777;BME280;10047;42.490;26.012;2023-02-18T08:00:47;100737.88;;;6.10;100.00
19777;BME280;10047;42.490;26.012;2023-02-18T08:03:16;100666.41;;;6.33;100.00
19777;BME280;10047;42.490;26.012;2023-02-18T08:05:43;100735.34;;;5.94;100.00
19777;BME280;10047;42.490;26.012;2023-02-18T08:08:18;100721.94;;;6.54;100.00
19777;BME280;10047;42.490;26.012;2023-02-18T08:10:45;100685.75;;;6.53;100.00
19777;BME280;10047;42.490;26.012;2023-02-18T08:13:11;100737.09;;;6.91;100.00
19777;BME280;10047;42.490;26.012;2023-02-18T08:15:37;100705.09;;;6.96;100.00
19777;BME280;10047;42.490;26.012;2023-02-18T08:18:03;100726.16;;;7.03;100.00
19777;BME280;10047;42.490;26.012;2023-02-18T08:20:29;100706.72;;;7.20;100.00
19777;BME280;10047;42.490;26.012;2023-02-18T08:22:54;100717.72;;;6.98;100.00
19777;BME280;10047;42.490;26.012;2023-02-18T08:25:20;100662.16;;;6.60;100.00
19777;BME280;10047;42.490;26.012;2023-02-18T08:27:45;100692.44;;;6.81;100.00
19777;BME280;10047;42.490;26.012;2023-02-18T08:30:11;100652.03;;;6.78;100.00
19777;BME280;10047;42.490;26.012;2023-02-18T08:32:37;100613.34;;;6.55;100.00
19777;BME280;10047;42.490;26.012;2023-02-18T08:35:03;100698.34;;;7.00;100.00
19777;BME280;10047;42.490;26.012;2023-02-18T08:37:29;100642.75;;;6.94;100.00
19777;BME280;10047;42.490;26.012;2023-02-18T08:39:54;100699.03;;;7.50;100.00
19777;BME280;10047;42.490;26.012;2023-02-18T08:42:21;100667.97;;;7.11;100.00
19777;BME280;10047;42.490;26.012;2023-02-18T08:44:47;100683.03;;;7.42;100.00
19777;BME280;10047;42.490;26.012;2023-02-18T08:47:12;100604.88;;;6.77;100.00
19777;BME280;10047;42.490;26.012;2023-02-18T08:49:38;100607.41;;;6.80;100.00
19777;BME280;10047;42.490;26.012;2023-02-18T08:52:03;100647.69;;;7.21;100.00
19777;BME280;10047;42.490;26.012;2023-02-18T08:54:29;100682.13;;;7.57;100.00
19777;BME280;10047;42.490;26.012;2023-02-18T08:56:55;100691.47;;;7.44;100.00
19777;BME280;10047;42.490;26.012;2023-02-18T08:59:23;100652.53;;;7.71;100.00
19777;BME280;10047;42.490;26.012;2023-02-18T09:01:48;100665.09;;;7.87;100.00
19777;BME280;10047;42.490;26.012;2023-02-18T09:04:14;100655.94;;;7.67;100.00
19777;BME280;10047;42.490;26.012;2023-02-18T09:06:40;100688.56;;;8.15;100.00
19777;BME280;10047;42.490;26.012;2023-02-18T09:09:05;100624.44;;;8.12;100.00
19777;BME280;10047;42.490;26.012;2023-02-18T09:11:31;100688.41;;;8.38;100.00
19777;BME280;10047;42.490;26.012;2023-02-18T09:14:00;100698.63;;;8.29;100.00
19777;BME280;10047;42.490;26.012;2023-02-18T09:16:28;100707.06;;;8.28;100.00
19777;BME280;10047;42.490;26.012;2023-02-18T09:18:55;100657.38;;;8.06;100.00
19777;BME280;10047;42.490;26.012;2023-02-18T09:21:21;100654.03;;;8.02;100.00
19777;BME280;10047;42.490;26.012;2023-02-18T09:23:48;100682.47;;;8.42;100.00
19777;BME280;10047;42.490;26.012;2023-02-18T09:26:15;100676.03;;;8.99;100.00
19777;BME280;10047;42.490;26.012;2023-02-18T09:28:41;100674.25;;;9.07;100.00
19777;BME280;10047;42.490;26.012;2023-02-18T09:31:14;100626.50;;;8.67;100.00
19777;BME280;10047;42.490;26.012;2023-02-18T09:33:45;100627.03;;;8.97;100.00
19777;BME280;10047;42.490;26.012;2023-02-18T09:36:11;100619.50;;;8.88;100.00
19777;BME280;10047;42.490;26.012;2023-02-18T09:38:36;100632.88;;;9.05;100.00
19777;BME280;10047;42.490;26.012;2023-02-18T09:41:05;100664.53;;;9.42;100.00
19777;BME280;10047;42.490;26.012;2023-02-18T09:43:39;100653.59;;;9.38;100.00
19777;BME280;10047;42.490;26.012;2023-02-18T09:46:18;100643.25;;;9.53;100.00
19777;BME280;10047;42.490;26.012;2023-02-18T09:48:45;100597.63;;;9.47;100.00
19777;BME280;10047;42.490;26.012;2023-02-18T09:51:13;100652.72;;;10.02;100.00
19777;BME280;10047;42.490;26.012;2023-02-18T09:53:41;100644.41;;;9.91;100.00
19777;BME280;10047;42.490;26.012;2023-02-18T09:56:16;100653.09;;;9.76;100.00
19777;BME280;10047;42.490;26.012;2023-02-18T09:58:45;100604.88;;;9.73;100.00
19777;BME280;10047;42.490;26.012;2023-02-18T10:01:19;100648.63;;;9.92;100.00
19777;BME280;10047;42.490;26.012;2023-02-18T10:03:46;100643.00;;;9.72;100.00
19777;BME280;10047;42.490;26.012;2023-02-18T10:06:17;100600.16;;;10.05;100.00
19777;BME280;10047;42.490;26.012;2023-02-18T10:08:47;100575.94;;;10.36;100.00
19777;BME280;10047;42.490;26.012;2023-02-18T10:11:32;100617.97;;;10.57;100.00
19777;BME280;10047;42.490;26.012;2023-02-18T10:14:00;100636.81;;;10.44;100.00
19777;BME280;10047;42.490;26.012;2023-02-18T10:16:27;100609.41;;;10.61;100.00
19777;BME280;10047;42.490;26.012;2023-02-18T10:18:56;100591.53;;;10.64;100.00
19777;BME280;10047;42.490;26.012;2023-02-18T10:21:28;100622.75;;;10.72;100.00
19777;BME280;10047;42.490;26.012;2023-02-18T10:24:13;100625.38;;;10.69;100.00
19777;BME280;10047;42.490;26.012;2023-02-18T10:26:44;100559.28;;;10.22;100.00
19777;BME280;10047;42.490;26.012;2023-02-18T10:29:14;100617.41;;;10.87;100.00
19777;BME280;10047;42.490;26.012;2023-02-18T10:31:45;100606.22;;;10.94;100.00
19777;BME280;10047;42.490;26.012;2023-02-18T10:36:57;100602.00;;;11.36;100.00
19777;BME280;10047;42.490;26.012;2023-02-18T10:50:04;100574.06;;;12.06;100.00
19777;BME280;10047;42.490;26.012;2023-02-18T10:52:37;100580.47;;;12.23;100.00
19777;BME280;10047;42.490;26.012;2023-02-18T10:55:13;100571.50;;;12.08;100.00
19777;BME280;10047;42.490;26.012;2023-02-18T10:57:53;100526.22;;;11.84;100.00
19777;BME280;10047;42.490;26.012;2023-02-18T11:00:24;100534.94;;;12.09;100.00
19777;BME280;10047;42.490;26.012;2023-02-18T11:05:37;100561.31;;;12.06;100.00
19777;BME280;10047;42.490;26.012;2023-02-18T11:08:09;100570.25;;;12.23;100.00
19777;BME280;10047;42.490;26.012;2023-02-18T11:10:41;100564.25;;;12.57;100.00
19777;BME280;10047;42.490;26.012;2023-02-18T11:13:09;100503.63;;;12.67;100.00
19777;BME280;10047;42.490;26.012;2023-02-18T11:15:36;100548.94;;;12.88;100.00
19777;BME280;10047;42.490;26.012;2023-02-18T11:18:28;100556.50;;;12.60;100.00
19777;BME280;10047;42.490;26.012;2023-02-18T11:20:57;100529.78;;;12.43;100.00
19777;BME280;10047;42.490;26.012;2023-02-18T11:23:23;100543.53;;;12.69;100.00
19777;BME280;10047;42.490;26.012;2023-02-18T11:28:40;100515.03;;;13.41;100.00
19777;BME280;10047;42.490;26.012;2023-02-18T11:31:08;100512.69;;;13.61;100.00
19777;BME280;10047;42.490;26.012;2023-02-18T11:33:40;100494.59;;;13.15;100.00
19777;BME280;10047;42.490;26.012;2023-02-18T11:38:45;100458.06;;;13.39;100.00
19777;BME280;10047;42.490;26.012;2023-02-18T11:41:15;100454.44;;;13.72;100.00
19777;BME280;10047;42.490;26.012;2023-02-18T11:43:47;100504.34;;;13.56;100.00
19777;BME280;10047;42.490;26.012;2023-02-18T11:46:20;100443.75;;;13.34;100.00
19777;BME280;10047;42.490;26.012;2023-02-18T11:48:46;100477.03;;;13.58;100.00
19777;BME280;10047;42.490;26.012;2023-02-18T11:51:18;100434.28;;;13.37;100.00
19777;BME280;10047;42.490;26.012;2023-02-18T11:54:09;100456.09;;;13.73;100.00
19777;BME280;10047;42.490;26.012;2023-02-18T11:56:54;100472.06;;;13.80;100.00
19777;BME280;10047;42.490;26.012;2023-02-18T11:59:21;100433.78;;;13.78;100.00
19777;BME280;10047;42.490;26.012;2023-02-18T12:01:50;100470.41;;;14.04;100.00
19777;BME280;10047;42.490;26.012;2023-02-18T12:04:18;100406.34;;;13.83;100.00
19777;BME280;10047;42.490;26.012;2023-02-18T12:06:52;100458.19;;;14.12;100.00
19777;BME280;10047;42.490;26.012;2023-02-18T12:09:26;100455.06;;;14.28;100.00
19777;BME280;10047;42.490;26.012;2023-02-18T12:11:55;100395.22;;;13.84;100.00
19777;BME280;10047;42.490;26.012;2023-02-18T12:14:23;100405.09;;;14.18;100.00
19777;BME280;10047;42.490;26.012;2023-02-18T12:22:21;100440.78;;;14.46;100.00
19777;BME280;10047;42.490;26.012;2023-02-18T12:33:40;100430.00;;;14.38;100.00
19777;BME280;10047;42.490;26.012;2023-02-18T12:36:12;100437.31;;;14.24;100.00
19777;BME280;10047;42.490;26.012;2023-02-18T12:41:52;100372.81;;;14.16;100.00
19777;BME280;10047;42.490;26.012;2023-02-18T12:53:06;100410.28;;;14.63;100.00
19777;BME280;10047;42.490;26.012;2023-02-18T13:17:22;100388.91;;;15.71;100.00
19777;BME280;10047;42.490;26.012;2023-02-18T13:19:56;100389.16;;;15.65;100.00
19777;BME280;10047;42.490;26.012;2023-02-18T13:22:24;100331.59;;;15.51;100.00
19777;BME280;10047;42.490;26.012;2023-02-18T13:24:54;100379.31;;;16.13;100.00
19777;BME280;10047;42.490;26.012;2023-02-18T13:27:35;100366.25;;;16.37;100.00
19777;BME280;10047;42.490;26.012;2023-02-18T13:30:15;100368.72;;;16.20;100.00
19777;BME280;10047;42.490;26.012;2023-02-18T13:40:38;100365.97;;;17.51;100.00
19777;BME280;10047;42.490;26.012;2023-02-18T13:51:06;100322.81;;;17.21;100.00
19777;BME280;10047;42.490;26.012;2023-02-18T13:53:36;100304.31;;;16.98;100.00
19777;BME280;10047;42.490;26.012;2023-02-18T13:56:26;100351.78;;;17.59;99.65
19777;BME280;10047;42.490;26.012;2023-02-18T13:59:01;100365.09;;;17.84;98.82
19777;BME280;10047;42.490;26.012;2023-02-18T14:01:36;100367.50;;;18.03;98.69
19777;BME280;10047;42.490;26.012;2023-02-18T14:04:02;100308.03;;;17.61;97.10
19777;BME280;10047;42.490;26.012;2023-02-18T14:06:32;100323.50;;;17.42;100.00
19777;BME280;10047;42.490;26.012;2023-02-18T14:11:46;100352.50;;;17.63;98.59
19777;BME280;10047;42.490;26.012;2023-02-18T14:22:33;100337.81;;;18.29;95.73
19777;BME280;10047;42.490;26.012;2023-02-18T14:27:34;100303.78;;;18.08;92.39
19777;BME280;10047;42.490;26.012;2023-02-18T14:30:25;100351.13;;;18.37;91.27
19777;BME280;10047;42.490;26.012;2023-02-18T14:32:58;100283.94;;;17.94;91.05
19777;BME280;10047;42.490;26.012;2023-02-18T14:35:52;100356.75;;;18.12;94.83
19777;BME280;10047;42.490;26.012;2023-02-18T14:47:09;100344.13;;;18.07;92.41
19777;BME280;10047;42.490;26.012;2023-02-18T14:49:47;100344.81;;;17.78;96.30
19777;BME280;10047;42.490;26.012;2023-02-18T14:52:30;100289.94;;;17.62;93.51
19777;BME280;10047;42.490;26.012;2023-02-18T14:54:59;100342.06;;;17.81;94.44
19777;BME280;10047;42.490;26.012;2023-02-18T14:57:37;100310.81;;;17.56;96.21
19777;BME280;10047;42.490;26.012;2023-02-18T15:00:04;100341.22;;;17.81;92.33
19777;BME280;10047;42.490;26.012;2023-02-18T15:02:35;100338.78;;;17.95;89.00
19777;BME280;10047;42.490;26.012;2023-02-18T15:05:32;100343.38;;;17.73;91.82
19777;BME280;10047;42.490;26.012;2023-02-18T15:08:06;100346.66;;;17.59;93.92
19777;BME280;10047;42.490;26.012;2023-02-18T15:11:05;100346.63;;;17.76;91.99
19777;BME280;10047;42.490;26.012;2023-02-18T15:13:41;100341.44;;;17.93;88.92
19777;BME280;10047;42.490;26.012;2023-02-18T15:16:26;100292.59;;;17.61;89.86